Flight Track Log - Related Links

Times and Time Zones

All times are in EDT time to prevent confusion due to time zone crossing. See the N612CT flight status page for this flight to view local times or setup timezone preferences in your user account.

Time Position Orientation Groundspeed Altitude Reporting Facility
EDT Latitude Longitude Course Direction KTS MPH feet Rate Location/Type
Tue 08:20:00 AM 26.3936 -81.8605 340° North  Level FlightAware Approximate
Tue 08:21:00 AM 26.4421 -81.8799 340° North  Level FlightAware Approximate
Tue 08:22:00 AM 26.4907 -81.8992 340° North  Level FlightAware Approximate
Tue 08:23:00 AM 26.5392 -81.9186 340° North  Level FlightAware Approximate
Tue 08:24:00 AM 26.5877 -81.9380 340° North  Level FlightAware Approximate
Tue 08:25:00 AM 26.6363 -81.9574 340° North  Level FlightAware Approximate
Tue 08:26:00 AM 26.6848 -81.9769 340° North  Level FlightAware Approximate
Tue 08:27:00 AM 26.7334 -81.9963 340° North  Level FlightAware Approximate
Tue 08:28:00 AM 26.7819 -82.0158 340° North  Level FlightAware Approximate
Tue 08:29:00 AM 26.8304 -82.0352 340° North  Level FlightAware Approximate
Tue 08:30:00 AM 26.8789 -82.0547 340° North  Level FlightAware Approximate
Tue 08:31:00 AM 26.9274 -82.0742 340° North  Level FlightAware Approximate
Tue 08:31:43 AM 26.8167 -82.2833 294° West 177 204 4,000  Level Tampa TRACON
Tue 08:32:00 AM 26.9597 -82.1123 291° West  Level FlightAware Approximate
Tue 08:32:31 AM 26.8500 -82.3000 336° Northwest 177 204 4,000  Level Tampa TRACON
Tue 08:33:00 AM 26.9777 -82.1665 291° West  Level FlightAware Approximate
Tue 08:33:19 AM 26.8833 -82.3333 318° Northwest 179 206 3,700  Level Tampa TRACON
Tue 08:34:00 AM 26.9911 -82.2222 283° West  Level FlightAware Approximate
Tue 08:34:25 AM 26.9333 -82.3667 329° Northwest 190 219 3,100  Level Tampa TRACON
Tue 08:35:00 AM 27.0045 -82.2779 294° West  Level FlightAware Approximate
Tue 08:35:25 AM 26.9833 -82.3833 343° North 192 221 2,500  Level Tampa TRACON
Tue 08:36:00 AM 27.0256 -82.3307 294° West  Level FlightAware Approximate
Tue 08:36:25 AM 27.0333 -82.4167 329° Northwest 187 215 1,900  Level Tampa TRACON
Tue 08:37:00 AM 27.0467 -82.3834 294° West  Level FlightAware Approximate
Tue 08:37:26 AM 27.0667 -82.4333 336° Northwest 145 167 1,500  Level Tampa TRACON
Tue 08:38:26 AM 27.0833 -82.4667 299° West 131 151 1,300 -400 Descending Tampa TRACON
Tue 08:39:26 AM 27.0667 -82.4833 222° Southwest 111 128 700 -600 Descending Tampa TRACON

Login

Don't have an account? Register now (free) for customized features, flight alerts, and more!